Time;durP1;ratioP1;P1;durP2;ratioP2;P2;SDS_P1;SDS_P2;PMS_P1;PMS_P2;Temp;Humidity;BMP_temperature;BMP_pressure;BME280_temperature;BME280_humidity;BME280_pressure;Samples;Min_cycle;Max_cycle;Signal;HPM_P1;HPM_P2
2024/03/19 00:01:18;;;;;;;6.88;5.22;;;;;;;;;;10323696;28;20038;-55
2024/03/19 00:06:19;;;;;;;8.32;5.35;;;;;;;;;;10322539;28;20034;-53
2024/03/19 00:11:19;;;;;;;13.30;5.18;;;;;;;;;;10327770;28;20026;-51
2024/03/19 00:16:20;;;;;;;7.70;5.22;;;;;;;;;;10331638;28;20039;-52
2024/03/19 00:21:21;;;;;;;6.68;5.35;;;;;;;;;;10327058;28;20039;-53
2024/03/19 00:26:21;;;;;;;10.75;5.10;;;;;;;;;;10322431;28;20030;-51
2024/03/19 00:31:22;;;;;;;6.65;4.57;;;;;;;;;;10322573;28;20026;-52
2024/03/19 00:36:22;;;;;;;7.63;4.90;;;;;;;;;;10320023;28;20046;-53
2024/03/19 00:41:23;;;;;;;4.93;4.43;;;;;;;;;;10327423;28;20049;-53
2024/03/19 00:46:23;;;;;;;5.72;4.45;;;;;;;;;;10331182;28;20031;-52
2024/03/19 00:51:24;;;;;;;6.30;4.60;;;;;;;;;;10330466;28;20393;-53
2024/03/19 00:56:26;;;;;;;8.40;4.55;;;;;;;;;;10330098;28;20393;-51
2024/03/19 01:01:26;;;;;;;5.90;4.40;;;;;;;;;;10330288;28;20038;-53
2024/03/19 01:06:27;;;;;;;12.98;4.95;;;;;;;;;;10330397;28;20022;-52
2024/03/19 01:11:28;;;;;;;5.47;4.53;;;;;;;;;;10330219;28;20027;-53
2024/03/19 01:16:28;;;;;;;6.18;4.22;;;;;;;;;;10330243;28;20041;-53
2024/03/19 01:21:29;;;;;;;5.22;4.40;;;;;;;;;;10327960;28;20351;-53
2024/03/19 01:26:30;;;;;;;6.63;4.50;;;;;;;;;;10329390;28;20030;-53
2024/03/19 01:31:33;;;;;;;8.20;4.10;;;;;;;;;;10328378;28;20049;-53
2024/03/19 01:36:34;;;;;;;4.53;3.60;;;;;;;;;;10329265;28;20050;-52
2024/03/19 01:41:35;;;;;;;8.15;4.05;;;;;;;;;;10329287;28;20065;-52
2024/03/19 01:46:35;;;;;;;5.65;4.22;;;;;;;;;;10329683;28;20046;-52
2024/03/19 01:51:36;;;;;;;5.50;3.97;;;;;;;;;;10325220;28;20027;-50
2024/03/19 01:56:38;;;;;;;7.53;4.10;;;;;;;;;;10328570;28;20089;-52
2024/03/19 02:01:38;;;;;;;4.93;3.85;;;;;;;;;;10328984;28;20137;-51
2024/03/19 02:06:39;;;;;;;6.07;3.78;;;;;;;;;;10319874;28;20134;-52
2024/03/19 02:11:40;;;;;;;5.00;3.88;;;;;;;;;;10322412;28;20041;-53
2024/03/19 02:16:41;;;;;;;6.93;3.60;;;;;;;;;;10327774;28;20356;-52
2024/03/19 02:21:42;;;;;;;7.50;3.95;;;;;;;;;;10326052;28;20030;-51
2024/03/19 02:26:43;;;;;;;6.88;3.65;;;;;;;;;;10322084;28;20031;-54
2024/03/19 02:31:44;;;;;;;4.10;3.70;;;;;;;;;;10327155;28;20026;-53
2024/03/19 02:36:44;;;;;;;5.85;4.10;;;;;;;;;;10324331;28;20721;-55
2024/03/19 02:41:45;;;;;;;5.75;3.80;;;;;;;;;;10312004;28;20041;-54
2024/03/19 02:46:46;;;;;;;4.97;3.78;;;;;;;;;;10305155;28;20042;-55
2024/03/19 02:51:46;;;;;;;6.78;4.03;;;;;;;;;;10319087;28;20557;-52
2024/03/19 02:56:47;;;;;;;3.83;3.42;;;;;;;;;;10319199;28;20030;-51
2024/03/19 03:01:48;;;;;;;6.97;4.10;;;;;;;;;;10326149;28;20390;-55
2024/03/19 03:06:49;;;;;;;5.15;3.60;;;;;;;;;;10323696;28;20229;-54
2024/03/19 03:11:49;;;;;;;4.10;3.60;;;;;;;;;;10326263;28;20475;-57
2024/03/19 03:16:50;;;;;;;4.30;3.33;;;;;;;;;;10324363;28;20037;-56
2024/03/19 03:21:50;;;;;;;6.15;3.83;;;;;;;;;;10321986;28;20030;-57
2024/03/19 03:26:51;;;;;;;4.32;3.40;;;;;;;;;;10324469;28;20026;-57
2024/03/19 03:31:52;;;;;;;4.13;3.53;;;;;;;;;;10323156;28;20081;-55
2024/03/19 03:36:53;;;;;;;4.03;3.63;;;;;;;;;;10321280;28;20042;-53
2024/03/19 03:41:53;;;;;;;3.60;3.25;;;;;;;;;;10323596;28;20490;-54
2024/03/19 03:46:54;;;;;;;5.13;3.22;;;;;;;;;;10319033;28;20034;-51
2024/03/19 03:51:55;;;;;;;3.90;3.50;;;;;;;;;;10322028;28;20118;-46
2024/03/19 03:56:55;;;;;;;3.78;3.15;;;;;;;;;;10323361;28;20030;-52
2024/03/19 04:01:56;;;;;;;3.50;3.20;;;;;;;;;;10324974;28;20031;-60
2024/03/19 04:06:56;;;;;;;6.50;3.47;;;;;;;;;;10319391;28;20030;-60
2024/03/19 04:11:57;;;;;;;3.53;3.22;;;;;;;;;;10323543;28;20038;-60
2024/03/19 04:16:58;;;;;;;6.15;3.53;;;;;;;;;;10315225;28;20034;-60
2024/03/19 04:21:58;;;;;;;4.88;3.58;;;;;;;;;;10318408;28;20035;-61
2024/03/19 04:26:59;;;;;;;3.97;3.03;;;;;;;;;;10323761;28;20089;-60
2024/03/19 04:32:00;;;;;;;5.10;3.60;;;;;;;;;;10309766;28;20394;-60
2024/03/19 04:37:00;;;;;;;4.18;3.17;;;;;;;;;;10321807;28;20427;-61
2024/03/19 04:42:01;;;;;;;3.50;3.20;;;;;;;;;;10323297;28;20034;-61
2024/03/19 04:47:01;;;;;;;3.38;3.00;;;;;;;;;;10322861;28;20053;-61
2024/03/19 04:52:02;;;;;;;3.95;3.17;;;;;;;;;;10316859;28;20027;-62
2024/03/19 04:57:03;;;;;;;3.45;3.15;;;;;;;;;;10322596;28;20497;-62
2024/03/19 05:02:04;;;;;;;3.15;2.80;;;;;;;;;;10328958;28;20034;-60
2024/03/19 05:07:04;;;;;;;4.07;3.67;;;;;;;;;;10329415;28;20037;-61
2024/03/19 05:12:06;;;;;;;4.50;3.08;;;;;;;;;;10328619;28;20053;-58
2024/03/19 05:17:06;;;;;;;4.20;3.30;;;;;;;;;;10328640;28;20057;-60
2024/03/19 05:22:07;;;;;;;5.28;3.10;;;;;;;;;;10329683;28;20037;-59
2024/03/19 05:27:10;;;;;;;3.10;2.80;;;;;;;;;;10326892;28;20459;-60
2024/03/19 05:32:11;;;;;;;3.05;2.65;;;;;;;;;;10328910;28;20026;-60
2024/03/19 05:37:12;;;;;;;6.30;3.10;;;;;;;;;;10328798;28;20390;-60
2024/03/19 05:42:12;;;;;;;3.08;2.78;;;;;;;;;;10327865;28;20089;-59
2024/03/19 05:47:14;;;;;;;3.45;3.00;;;;;;;;;;10317836;28;20537;-59
2024/03/19 05:52:16;;;;;;;3.17;2.72;;;;;;;;;;10319247;28;20114;-61
2024/03/19 05:57:17;;;;;;;3.35;3.00;;;;;;;;;;10328379;28;20089;-60
2024/03/19 06:02:18;;;;;;;3.17;2.88;;;;;;;;;;10327039;28;20046;-54
2024/03/19 06:07:19;;;;;;;3.17;2.80;;;;;;;;;;10321119;28;20513;-58
2024/03/19 06:12:20;;;;;;;4.90;3.10;;;;;;;;;;10328350;28;20238;-61
2024/03/19 06:17:21;;;;;;;3.70;2.88;;;;;;;;;;10327086;28;20054;-60
2024/03/19 06:22:22;;;;;;;4.07;2.85;;;;;;;;;;10327475;28;20100;-59
2024/03/19 06:27:22;;;;;;;3.95;3.45;;;;;;;;;;10325145;28;20030;-61
2024/03/19 06:32:23;;;;;;;3.75;3.08;;;;;;;;;;10322449;28;20341;-59
2024/03/19 06:37:23;;;;;;;4.60;3.60;;;;;;;;;;10323934;28;20069;-60
2024/03/19 06:42:24;;;;;;;5.82;3.63;;;;;;;;;;10323814;28;20053;-59
2024/03/19 06:47:24;;;;;;;6.00;3.53;;;;;;;;;;10323436;28;20025;-59
2024/03/19 06:52:25;;;;;;;6.30;3.50;;;;;;;;;;10319044;28;20031;-59
2024/03/19 06:57:28;;;;;;;8.68;3.72;;;;;;;;;;10317184;28;20169;-60
2024/03/19 07:02:29;;;;;;;10.13;3.38;;;;;;;;;;10320496;28;20077;-60
2024/03/19 07:07:29;;;;;;;3.95;3.55;;;;;;;;;;10325703;28;20030;-61
2024/03/19 07:12:30;;;;;;;12.77;4.45;;;;;;;;;;10323434;28;20438;-62
2024/03/19 07:17:31;;;;;;;7.78;4.57;;;;;;;;;;10324377;28;20402;-60
2024/03/19 07:22:32;;;;;;;8.43;4.43;;;;;;;;;;10324562;28;20424;-60
2024/03/19 07:27:36;;;;;;;6.63;3.92;;;;;;;;;;10324461;28;20100;-61
2024/03/19 07:32:37;;;;;;;8.10;4.20;;;;;;;;;;10325073;28;20141;-60
2024/03/19 07:37:38;;;;;;;6.75;4.07;;;;;;;;;;10324740;28;20113;-55
2024/03/19 07:42:40;;;;;;;7.38;4.40;;;;;;;;;;10323800;28;20030;-52
2024/03/19 07:47:40;;;;;;;6.90;4.28;;;;;;;;;;10324985;28;20019;-53
2024/03/19 07:52:41;;;;;;;5.05;4.03;;;;;;;;;;10317734;28;20359;-54
2024/03/19 07:57:41;;;;;;;5.60;3.90;;;;;;;;;;10324207;28;20383;-55
2024/03/19 08:02:43;;;;;;;4.75;3.75;;;;;;;;;;10324211;28;20027;-57
2024/03/19 08:07:43;;;;;;;4.68;4.20;;;;;;;;;;10324112;28;20022;-54
2024/03/19 08:12:45;;;;;;;7.05;4.50;;;;;;;;;;10322907;28;20033;-53
2024/03/19 08:17:46;;;;;;;6.07;4.43;;;;;;;;;;10323419;28;20026;-55
2024/03/19 08:22:46;;;;;;;6.80;4.65;;;;;;;;;;10323779;28;20038;-52
2024/03/19 08:27:47;;;;;;;8.70;4.28;;;;;;;;;;10322863;28;20030;-53
2024/03/19 08:32:47;;;;;;;6.78;4.32;;;;;;;;;;10328430;28;20022;-53
2024/03/19 08:37:48;;;;;;;5.10;4.57;;;;;;;;;;10331312;28;20553;-62
2024/03/19 08:42:49;;;;;;;7.07;4.50;;;;;;;;;;10330579;28;20035;-60
2024/03/19 08:47:51;;;;;;;7.03;4.55;;;;;;;;;;10330898;28;20061;-60
2024/03/19 08:52:52;;;;;;;6.00;4.32;;;;;;;;;;10323628;28;20122;-62
2024/03/19 08:57:53;;;;;;;7.05;4.88;;;;;;;;;;10331288;28;20041;-62
2024/03/19 09:02:53;;;;;;;5.35;4.60;;;;;;;;;;10329845;28;20029;-61
2024/03/19 09:07:54;;;;;;;4.57;4.03;;;;;;;;;;10330852;28;20088;-60
2024/03/19 09:12:54;;;;;;;4.78;4.35;;;;;;;;;;10330716;28;20030;-61
2024/03/19 09:17:55;;;;;;;5.00;4.22;;;;;;;;;;10329712;28;20360;-61
2024/03/19 09:22:56;;;;;;;6.10;4.05;;;;;;;;;;10329842;28;20034;-61
2024/03/19 09:27:57;;;;;;;5.18;4.07;;;;;;;;;;10329041;28;20041;-62
2024/03/19 09:32:58;;;;;;;6.28;4.47;;;;;;;;;;10328244;28;20034;-61
2024/03/19 09:37:58;;;;;;;7.30;4.43;;;;;;;;;;10329036;28;20050;-62
2024/03/19 09:42:59;;;;;;;4.88;4.13;;;;;;;;;;10327532;28;20022;-62
2024/03/19 09:48:00;;;;;;;4.90;4.07;;;;;;;;;;10329144;28;20035;-62
2024/03/19 09:53:00;;;;;;;5.68;4.30;;;;;;;;;;10322113;28;20026;-62
2024/03/19 09:58:02;;;;;;;5.00;4.40;;;;;;;;;;10328743;28;20109;-62
2024/03/19 10:03:03;;;;;;;4.75;3.95;;;;;;;;;;10326580;28;20042;-62
2024/03/19 10:08:05;;;;;;;4.43;4.00;;;;;;;;;;10326765;28;20494;-62
2024/03/19 10:13:13;;;;;;;5.18;4.22;;;;;;;;;;10326122;28;20155;-61
2024/03/19 10:18:14;;;;;;;5.93;4.38;;;;;;;;;;10326281;28;20026;-60
2024/03/19 10:23:15;;;;;;;5.22;4.63;;;;;;;;;;10327260;28;20038;-62
2024/03/19 10:28:18;;;;;;;5.50;4.28;;;;;;;;;;10326509;28;20030;-60
2024/03/19 10:33:19;;;;;;;4.82;4.32;;;;;;;;;;10327544;28;20816;-57
2024/03/19 10:38:21;;;;;;;5.60;4.40;;;;;;;;;;10328048;28;20104;-53
2024/03/19 10:43:24;;;;;;;5.75;4.72;;;;;;;;;;10324504;28;20146;-54
2024/03/19 10:48:26;;;;;;;5.32;4.60;;;;;;;;;;10326615;28;20022;-57
2024/03/19 10:53:29;;;;;;;5.30;4.65;;;;;;;;;;10319513;28;20415;-57
2024/03/19 10:58:35;;;;;;;5.05;4.57;;;;;;;;;;10326899;28;20041;-55
2024/03/19 11:03:40;;;;;;;6.03;4.38;;;;;;;;;;10324490;28;20034;-57
2024/03/19 11:08:42;;;;;;;5.80;4.40;;;;;;;;;;10324669;28;20054;-52
2024/03/19 11:13:50;;;;;;;6.75;5.18;;;;;;;;;;10325266;28;20120;-52
2024/03/19 11:18:51;;;;;;;6.47;5.00;;;;;;;;;;10324099;28;20045;-51
2024/03/19 11:23:56;;;;;;;5.10;4.60;;;;;;;;;;10325184;28;20030;-53
2024/03/19 11:29:02;;;;;;;5.85;4.75;;;;;;;;;;10325341;28;20038;-56
2024/03/19 11:34:03;;;;;;;6.47;4.80;;;;;;;;;;10324605;28;20046;-62
2024/03/19 11:39:07;;;;;;;5.85;4.70;;;;;;;;;;10324906;28;20029;-61
2024/03/19 11:44:15;;;;;;;5.13;4.63;;;;;;;;;;10323532;28;20034;-63
2024/03/19 11:49:30;;;;;;;6.85;5.13;;;;;;;;;;10324695;28;20363;-62
2024/03/19 11:54:36;;;;;;;5.47;4.53;;;;;;;;;;10317818;28;20076;-61
2024/03/19 11:59:38;;;;;;;5.45;4.80;;;;;;;;;;10324731;28;20470;-61
2024/03/19 12:04:40;;;;;;;5.88;5.18;;;;;;;;;;10322818;28;20027;-61
2024/03/19 12:09:41;;;;;;;6.53;5.05;;;;;;;;;;10324248;28;20053;-61
2024/03/19 12:14:42;;;;;;;6.40;5.30;;;;;;;;;;10311731;28;20026;-58
2024/03/19 12:19:42;;;;;;;6.20;5.05;;;;;;;;;;10323521;28;20022;-62
2024/03/19 12:24:44;;;;;;;5.35;4.68;;;;;;;;;;10323513;28;20037;-57
2024/03/19 12:29:44;;;;;;;5.38;4.75;;;;;;;;;;10323607;28;20026;-62
2024/03/19 12:39:48;;;;;;;5.65;5.07;;;;;;;;;;10322855;28;20027;-62
2024/03/19 12:44:50;;;;;;;6.80;5.03;;;;;;;;;;10317953;28;20031;-62
2024/03/19 12:49:50;;;;;;;6.85;5.32;;;;;;;;;;10321868;28;20445;-60
2024/03/19 12:54:51;;;;;;;7.25;5.25;;;;;;;;;;10314676;28;20034;-58
2024/03/19 12:59:52;;;;;;;6.38;5.30;;;;;;;;;;10322054;28;20030;-61
2024/03/19 13:04:52;;;;;;;5.88;5.22;;;;;;;;;;10320917;28;20104;-61
2024/03/19 13:09:53;;;;;;;7.10;5.50;;;;;;;;;;10322991;28;20444;-62
2024/03/19 13:14:56;;;;;;;6.65;5.40;;;;;;;;;;10321760;28;20049;-57
2024/03/19 13:19:56;;;;;;;6.05;4.95;;;;;;;;;;10327623;28;20046;-61
2024/03/19 13:24:57;;;;;;;5.35;4.82;;;;;;;;;;10328843;28;20030;-58
2024/03/19 13:29:58;;;;;;;7.25;5.65;;;;;;;;;;10329868;28;20421;-62
2024/03/19 13:34:58;;;;;;;8.82;5.57;;;;;;;;;;10326744;28;20081;-62
2024/03/19 13:39:59;;;;;;;6.40;5.22;;;;;;;;;;10327384;28;20034;-60
2024/03/19 13:44:59;;;;;;;6.97;6.03;;;;;;;;;;10325676;28;20026;-59
2024/03/19 13:50:00;;;;;;;7.45;5.93;;;;;;;;;;10327892;28;20369;-62
2024/03/19 13:55:01;;;;;;;6.47;5.25;;;;;;;;;;10325639;28;20394;-62
2024/03/19 14:00:06;;;;;;;14.50;5.88;;;;;;;;;;10327168;28;20027;-60
2024/03/19 14:05:08;;;;;;;6.72;5.47;;;;;;;;;;10327642;28;20034;-61
2024/03/19 14:10:11;;;;;;;6.30;5.22;;;;;;;;;;10328565;28;20103;-60
2024/03/19 14:15:11;;;;;;;7.72;5.97;;;;;;;;;;10327143;28;20505;-55
2024/03/19 14:20:12;;;;;;;6.28;5.60;;;;;;;;;;10328123;28;20101;-62
2024/03/19 14:25:13;;;;;;;7.68;5.88;;;;;;;;;;10328112;28;20026;-62
2024/03/19 14:30:14;;;;;;;6.82;5.60;;;;;;;;;;10324878;28;20041;-61
2024/03/19 14:35:15;;;;;;;8.55;6.15;;;;;;;;;;10340209;23;20540;-62
2024/03/19 14:40:16;;;;;;;8.65;6.95;;;;;;;;;;10331400;28;20023;-63
2024/03/19 14:45:16;;;;;;;8.88;6.18;;;;;;;;;;10326575;28;20038;-62
2024/03/19 14:50:17;;;;;;;8.43;5.90;;;;;;;;;;10326229;28;20101;-62
2024/03/19 14:55:18;;;;;;;8.55;6.70;;;;;;;;;;10326019;28;20041;-62
2024/03/19 15:00:20;;;;;;;9.50;6.53;;;;;;;;;;10324531;28;20027;-62
2024/03/19 15:05:22;;;;;;;10.88;6.68;;;;;;;;;;10324728;28;20406;-62
2024/03/19 15:10:23;;;;;;;8.15;6.13;;;;;;;;;;10325835;28;20027;-62
2024/03/19 15:15:24;;;;;;;10.55;6.85;;;;;;;;;;10325377;28;20162;-63
2024/03/19 15:20:24;;;;;;;10.70;6.63;;;;;;;;;;10325689;28;20367;-62
2024/03/19 15:25:26;;;;;;;10.13;6.65;;;;;;;;;;10324767;28;20461;-62
2024/03/19 15:30:27;;;;;;;9.27;6.38;;;;;;;;;;10325888;28;20033;-62
2024/03/19 15:35:28;;;;;;;9.07;6.40;;;;;;;;;;10324448;28;20313;-62
2024/03/19 15:40:28;;;;;;;9.15;6.32;;;;;;;;;;10323876;28;20100;-63
2024/03/19 15:45:29;;;;;;;7.80;5.93;;;;;;;;;;10324437;28;20038;-63
2024/03/19 15:50:30;;;;;;;8.35;6.60;;;;;;;;;;10324977;28;20074;-62
2024/03/19 15:55:32;;;;;;;8.38;5.88;;;;;;;;;;10318487;28;20037;-62
2024/03/19 16:00:35;;;;;;;8.35;6.22;;;;;;;;;;10322536;28;20410;-62
2024/03/19 16:05:36;;;;;;;7.13;6.00;;;;;;;;;;10324160;28;20050;-63
2024/03/19 16:10:36;;;;;;;9.40;6.28;;;;;;;;;;10323846;28;20069;-62
2024/03/19 16:15:37;;;;;;;7.70;6.05;;;;;;;;;;10324535;28;20398;-62
2024/03/19 16:20:41;;;;;;;8.68;6.18;;;;;;;;;;10323672;28;20065;-62
2024/03/19 16:25:41;;;;;;;7.78;6.50;;;;;;;;;;10322894;28;20033;-63
2024/03/19 16:30:42;;;;;;;8.60;6.35;;;;;;;;;;10323572;28;20433;-63
2024/03/19 16:35:43;;;;;;;10.43;6.22;;;;;;;;;;10323194;28;20505;-62
2024/03/19 16:40:45;;;;;;;10.05;7.03;;;;;;;;;;10323472;28;20029;-62
2024/03/19 16:45:48;;;;;;;10.07;6.90;;;;;;;;;;10323160;28;20113;-62
2024/03/19 16:50:51;;;;;;;11.05;7.68;;;;;;;;;;10323378;28;20098;-62
2024/03/19 16:55:52;;;;;;;12.30;7.60;;;;;;;;;;10329995;28;21577;-62
2024/03/19 17:00:53;;;;;;;7.65;6.75;;;;;;;;;;10330929;28;20026;-63
2024/03/19 17:05:53;;;;;;;9.77;6.80;;;;;;;;;;10331549;28;20077;-63
2024/03/19 17:10:54;;;;;;;11.10;7.65;;;;;;;;;;10330437;28;20033;-62
2024/03/19 17:15:57;;;;;;;12.88;7.65;;;;;;;;;;10327716;28;20018;-62
2024/03/19 17:20:57;;;;;;;12.13;7.53;;;;;;;;;;10317352;28;20031;-62
2024/03/19 17:25:58;;;;;;;13.77;8.02;;;;;;;;;;10328980;28;20471;-62
2024/03/19 17:30:59;;;;;;;14.52;7.43;;;;;;;;;;10327893;28;20044;-62
2024/03/19 17:36:00;;;;;;;10.63;7.93;;;;;;;;;;10326168;28;20104;-62
2024/03/19 17:41:00;;;;;;;13.27;7.72;;;;;;;;;;10320382;28;20090;-62
2024/03/19 17:46:01;;;;;;;13.82;8.20;;;;;;;;;;10325931;28;20014;-62
2024/03/19 17:51:01;;;;;;;12.45;8.32;;;;;;;;;;10328151;28;20041;-62
2024/03/19 17:56:05;;;;;;;14.68;7.50;;;;;;;;;;10328497;28;20746;-63
2024/03/19 18:01:07;;;;;;;14.48;8.05;;;;;;;;;;10327091;28;20026;-62
2024/03/19 18:06:08;;;;;;;11.43;7.25;;;;;;;;;;10319589;28;20402;-62
2024/03/19 18:11:08;;;;;;;12.48;7.43;;;;;;;;;;10310409;28;20034;-62
2024/03/19 18:16:09;;;;;;;14.65;7.93;;;;;;;;;;10325980;28;20026;-62
2024/03/19 18:21:10;;;;;;;13.05;6.82;;;;;;;;;;10324063;28;20041;-62
2024/03/19 18:26:11;;;;;;;15.38;7.88;;;;;;;;;;10324672;28;20478;-62
2024/03/19 18:31:14;;;;;;;12.20;7.47;;;;;;;;;;10326836;28;20026;-63
2024/03/19 18:36:14;;;;;;;11.00;7.40;;;;;;;;;;10324999;28;20449;-62
2024/03/19 18:41:15;;;;;;;12.05;7.30;;;;;;;;;;10327445;28;20026;-62
2024/03/19 18:46:15;;;;;;;8.23;6.28;;;;;;;;;;10322386;28;20146;-62
2024/03/19 18:51:16;;;;;;;10.40;6.50;;;;;;;;;;10325953;28;20034;-62
2024/03/19 18:56:21;;;;;;;10.38;7.00;;;;;;;;;;10324104;28;20026;-62
2024/03/19 19:01:21;;;;;;;6.32;5.45;;;;;;;;;;10325094;28;20099;-62
2024/03/19 19:06:22;;;;;;;11.93;7.13;;;;;;;;;;10323857;28;20483;-62
2024/03/19 19:11:23;;;;;;;11.32;6.65;;;;;;;;;;10325410;28;20761;-62
2024/03/19 19:16:23;;;;;;;12.52;6.43;;;;;;;;;;10319809;28;20038;-62
2024/03/19 19:21:24;;;;;;;7.57;6.10;;;;;;;;;;10324100;28;20022;-63
2024/03/19 19:26:25;;;;;;;7.00;5.65;;;;;;;;;;10322600;28;20041;-62
2024/03/19 19:31:26;;;;;;;9.27;6.07;;;;;;;;;;10320878;28;20048;-62
2024/03/19 19:36:26;;;;;;;8.07;6.18;;;;;;;;;;10319665;28;20046;-62
2024/03/19 19:41:27;;;;;;;10.68;5.80;;;;;;;;;;10324171;28;20053;-62
2024/03/19 19:46:28;;;;;;;8.35;6.18;;;;;;;;;;10323266;28;20089;-62
2024/03/19 19:51:28;;;;;;;8.55;5.75;;;;;;;;;;10325296;28;20604;-63
2024/03/19 19:56:32;;;;;;;6.55;5.72;;;;;;;;;;10324117;28;20030;-62
2024/03/19 20:01:33;;;;;;;8.02;6.32;;;;;;;;;;10324234;28;20034;-62
2024/03/19 20:06:33;;;;;;;9.35;6.72;;;;;;;;;;10318076;28;20026;-62
2024/03/19 20:11:34;;;;;;;7.82;6.00;;;;;;;;;;10307359;28;20045;-62
2024/03/19 20:16:34;;;;;;;9.27;6.38;;;;;;;;;;10321791;28;20042;-62
2024/03/19 20:21:35;;;;;;;10.05;6.47;;;;;;;;;;10314112;28;20030;-62
2024/03/19 20:26:36;;;;;;;7.35;6.07;;;;;;;;;;10306152;28;20034;-62
2024/03/19 20:31:37;;;;;;;8.50;6.10;;;;;;;;;;10322611;28;20067;-62
2024/03/19 20:36:37;;;;;;;8.63;5.97;;;;;;;;;;10318075;28;20039;-61
2024/03/19 20:41:38;;;;;;;7.72;5.63;;;;;;;;;;10322271;28;20034;-61
2024/03/19 20:46:40;;;;;;;7.18;5.50;;;;;;;;;;10320990;28;20459;-62
2024/03/19 20:51:41;;;;;;;9.90;6.25;;;;;;;;;;10328573;28;20033;-62
2024/03/19 20:56:42;;;;;;;9.45;6.32;;;;;;;;;;10330851;28;20026;-62
2024/03/19 21:01:42;;;;;;;8.02;5.47;;;;;;;;;;10330890;28;20393;-62
2024/03/19 21:06:43;;;;;;;7.05;5.72;;;;;;;;;;10328111;28;20066;-62
2024/03/19 21:11:43;;;;;;;8.00;5.97;;;;;;;;;;10328173;28;20101;-62
2024/03/19 21:16:44;;;;;;;8.75;5.97;;;;;;;;;;10326912;28;20045;-62
2024/03/19 21:21:45;;;;;;;11.35;5.82;;;;;;;;;;10324355;28;20521;-62
2024/03/19 21:26:45;;;;;;;9.15;5.85;;;;;;;;;;10327357;28;20478;-62
2024/03/19 21:31:46;;;;;;;8.43;5.13;;;;;;;;;;10328276;28;20474;-62
2024/03/19 21:36:47;;;;;;;6.45;5.25;;;;;;;;;;10325836;28;20050;-62
2024/03/19 21:41:48;;;;;;;8.30;5.65;;;;;;;;;;10317767;28;20026;-62
2024/03/19 21:46:48;;;;;;;8.45;5.80;;;;;;;;;;10307794;28;20018;-63
2024/03/19 21:51:50;;;;;;;6.28;5.60;;;;;;;;;;10322812;28;20031;-63
2024/03/19 21:56:51;;;;;;;8.10;5.82;;;;;;;;;;10327150;28;20034;-62
2024/03/19 22:01:52;;;;;;;8.85;5.47;;;;;;;;;;10316849;28;20031;-62
2024/03/19 22:06:53;;;;;;;8.48;5.90;;;;;;;;;;10311010;28;20018;-62
2024/03/19 22:11:53;;;;;;;8.32;5.72;;;;;;;;;;10311955;28;20041;-62
2024/03/19 22:16:54;;;;;;;6.53;5.72;;;;;;;;;;10312677;28;20030;-62
2024/03/19 22:21:58;;;;;;;8.68;5.90;;;;;;;;;;10318658;28;20037;-62
2024/03/19 22:26:58;;;;;;;9.88;5.97;;;;;;;;;;10323064;28;20061;-62
2024/03/19 22:32:00;;;;;;;8.30;5.80;;;;;;;;;;10318961;28;20027;-62
2024/03/19 22:37:02;;;;;;;10.00;6.88;;;;;;;;;;10321795;28;20051;-63
2024/03/19 22:42:03;;;;;;;7.07;5.95;;;;;;;;;;10321958;28;20306;-62
2024/03/19 22:47:04;;;;;;;8.18;6.00;;;;;;;;;;10317661;28;20369;-62
2024/03/19 22:52:05;;;;;;;8.50;6.47;;;;;;;;;;10321355;28;20118;-63
2024/03/19 22:57:05;;;;;;;8.27;6.65;;;;;;;;;;10317402;28;20065;-62
2024/03/19 23:02:06;;;;;;;7.03;5.88;;;;;;;;;;10320280;28;20088;-62
2024/03/19 23:07:07;;;;;;;8.57;6.18;;;;;;;;;;10323336;28;20050;-62
2024/03/19 23:12:07;;;;;;;9.50;6.20;;;;;;;;;;10321967;28;20097;-63
2024/03/19 23:17:08;;;;;;;7.75;6.07;;;;;;;;;;10321332;28;20041;-64
2024/03/19 23:22:08;;;;;;;11.77;6.70;;;;;;;;;;10321335;28;20029;-64
2024/03/19 23:27:10;;;;;;;7.05;6.20;;;;;;;;;;10323494;28;20101;-64
2024/03/19 23:32:10;;;;;;;9.55;6.20;;;;;;;;;;10320882;28;20401;-64
2024/03/19 23:37:11;;;;;;;8.35;6.07;;;;;;;;;;10323401;28;20054;-64
2024/03/19 23:42:11;;;;;;;8.50;6.85;;;;;;;;;;10323696;28;20069;-64
2024/03/19 23:47:12;;;;;;;7.28;5.72;;;;;;;;;;10322549;28;20037;-64
2024/03/19 23:52:12;;;;;;;7.18;6.05;;;;;;;;;;10308247;28;20378;-62
2024/03/19 23:57:13;;;;;;;10.02;6.10;;;;;;;;;;10322917;28;20061;-62
